Mossy Head, Florida
Current Conditions -  °F | °C
As of 9:55 PM on Tuesday 27 Jan 2015 (Local Time) from K54J Reporting Station
Clear Clear  
Wind Chill: 42°   Ceiling: Unl
Heat Index: 45°   Visibility: 10mi
Dew Point: 36°   Wind: 5mph
Humidity: 72%   Direction: 340°NNW
Pressure: 30.12"   Gusts: NA
Location:  30.76°N, 86.32°W
Report Text: K54J 280355Z AUTO 34004KT 10SM CLR 07/02 A3012 RMK AO2 T00710023
Loading
Personal Weather Stations






























Interactive Weather Map New forecast layout! Learn more

10-Day Weather Forecast

Advertisements
Track Severe Weather on mobile